Terminal Aerodrome Forecast
Issued by NWS

Current Version | Previous Version | Text Only | Print | Product List | Glossary On
Versions: 1 2 3 4 5 6 7 8 9 10 11 12 13 14 15 16 17 18 19
000
FTUS42 KTBW 271600 AAA
TAFPGD
TAF AMD
KPGD 271610Z 2716/2812 02010KT P6SM SCT015 OVC035
      TEMPO 2716/2718 BKN015
     FM271800 04012KT P6SM VCSH BKN020 OVC040
     FM280100 05011KT P6SM VCSH BKN015=

USA.gov is the U.S. government's official web portal to all federal, state and local government web resources and services.